TAF KBPI
KBPI 090520Z 0906/1006 21010KT P6SM VCSH BKN040 TEMPO 0906/0910 4SM -SN BKN025 FM091700 31010KT 4SM -SHSN SCT025 OVC035=
METAR KBPI
WC KBPI
WS KBPI
WV KBPI